Time;durP1;ratioP1;P1;durP2;ratioP2;P2;SDS_P1;SDS_P2;PMS_P1;PMS_P2;Temp;Humidity;BMP_temperature;BMP_pressure;BME280_temperature;BME280_humidity;BME280_pressure;Samples;Min_cycle;Max_cycle;Signal;HPM_P1;HPM_P2
2023/08/12 00:01:48;;;;;;;;;;;18.90;99.90;;;;;;5034059;28;19927;-75
2023/08/12 00:04:15;;;;;;;;;;;18.90;99.90;;;;;;5050170;28;19939;-77
2023/08/12 00:06:41;;;;;;;;;;;18.90;99.90;;;;;;5050076;28;19994;-76
2023/08/12 00:09:07;;;;;;;;;;;18.80;99.90;;;;;;5050015;28;19917;-76
2023/08/12 00:11:34;;;;;;;;;;;18.90;99.90;;;;;;5055826;28;19928;-76
2023/08/12 00:14:01;;;;;;;;;;;18.80;99.90;;;;;;5069023;28;19978;-76
2023/08/12 00:16:26;;;;;;;;;;;18.90;99.90;;;;;;5053004;28;19943;-77
2023/08/12 00:18:52;;;;;;;;;;;18.80;99.90;;;;;;5070218;28;19925;-78
2023/08/12 00:21:18;;;;;;;;;;;18.80;99.90;;;;;;5069588;28;19920;-76
2023/08/12 00:23:44;;;;;;;;;;;18.90;99.90;;;;;;5069136;28;20010;-76
2023/08/12 00:26:10;;;;;;;;;;;18.90;99.90;;;;;;5052287;28;19920;-76
2023/08/12 00:28:35;;;;;;;;;;;18.90;99.90;;;;;;5069697;28;20251;-77
2023/08/12 00:31:01;;;;;;;;;;;18.90;99.90;;;;;;5052187;28;19999;-76
2023/08/12 00:33:26;;;;;;;;;;;18.90;99.90;;;;;;5052000;28;20389;-77
2023/08/12 00:35:53;;;;;;;;;;;18.90;99.90;;;;;;5069117;28;20011;-77
2023/08/12 00:38:19;;;;;;;;;;;18.80;99.90;;;;;;5070382;28;19927;-77
2023/08/12 00:40:44;;;;;;;;;;;18.80;99.90;;;;;;5069061;28;19920;-76
2023/08/12 00:43:11;;;;;;;;;;;18.80;99.90;;;;;;5069039;28;19917;-77
2023/08/12 00:45:40;;;;;;;;;;;18.80;99.90;;;;;;5070557;28;20388;-76
2023/08/12 00:48:06;;;;;;;;;;;18.90;99.90;;;;;;5083883;28;19920;-77
2023/08/12 00:50:32;;;;;;;;;;;18.90;99.90;;;;;;5089426;28;19920;-77
2023/08/12 00:52:58;;;;;;;;;;;18.90;99.90;;;;;;5099055;28;19927;-76
2023/08/12 00:55:24;;;;;;;;;;;18.90;99.90;;;;;;5056021;28;19920;-76
2023/08/12 00:57:50;;;;;;;;;;;18.90;99.90;;;;;;5072111;28;20410;-76
2023/08/12 01:00:16;;;;;;;;;;;19.00;99.90;;;;;;5072328;28;20382;-76
2023/08/12 01:02:47;;;;;;;;;;;18.80;99.90;;;;;;5071978;28;20003;-76
2023/08/12 01:05:13;;;;;;;;;;;18.70;99.90;;;;;;5055108;28;19920;-77
2023/08/12 01:07:39;;;;;;;;;;;18.80;99.90;;;;;;5072273;28;19920;-76
2023/08/12 01:10:05;;;;;;;;;;;18.80;99.90;;;;;;5071763;28;19924;-76
2023/08/12 01:12:36;;;;;;;;;;;18.70;99.90;;;;;;5072566;28;19927;-76
2023/08/12 01:15:05;;;;;;;;;;;18.70;99.90;;;;;;5072077;28;19923;-76
2023/08/12 01:17:31;;;;;;;;;;;18.70;99.90;;;;;;5074739;28;19919;-76
2023/08/12 01:19:58;;;;;;;;;;;18.80;99.90;;;;;;5075097;28;20270;-75
2023/08/12 01:22:25;;;;;;;;;;;18.80;99.90;;;;;;5075426;28;19984;-77
2023/08/12 01:24:51;;;;;;;;;;;18.70;99.90;;;;;;5075209;28;19920;-77
2023/08/12 01:27:17;;;;;;;;;;;18.70;99.90;;;;;;5093134;28;19942;-76
2023/08/12 01:29:44;;;;;;;;;;;18.60;99.90;;;;;;5075267;28;19920;-76
2023/08/12 01:32:28;;;;;;;;;;;18.60;99.90;;;;;;5075072;28;20258;-77
2023/08/12 01:35:00;;;;;;;;;;;18.60;99.90;;;;;;5054920;28;19928;-75
2023/08/12 01:37:27;;;;;;;;;;;18.60;99.90;;;;;;5055473;28;19963;-76
2023/08/12 01:39:54;;;;;;;;;;;18.50;99.90;;;;;;5055047;28;19924;-77
2023/08/12 01:42:20;;;;;;;;;;;18.50;99.90;;;;;;5055112;28;19916;-76
2023/08/12 01:44:46;;;;;;;;;;;18.50;99.90;;;;;;5041673;28;20391;-76
2023/08/12 01:47:11;;;;;;;;;;;18.40;99.90;;;;;;5057907;28;19926;-77
2023/08/12 01:49:37;;;;;;;;;;;18.40;99.90;;;;;;5058710;28;19924;-75
2023/08/12 01:52:03;;;;;;;;;;;18.40;99.90;;;;;;5058194;28;19981;-77
2023/08/12 01:54:33;;;;;;;;;;;18.40;99.90;;;;;;5075266;28;19920;-77
2023/08/12 01:57:02;;;;;;;;;;;18.30;99.90;;;;;;5074500;28;19915;-76
2023/08/12 01:59:28;;;;;;;;;;;18.30;99.90;;;;;;5074801;28;19924;-77
2023/08/12 02:01:53;;;;;;;;;;;18.20;99.90;;;;;;5055415;28;19921;-75
2023/08/12 02:04:19;;;;;;;;;;;18.20;99.90;;;;;;5062454;28;19962;-76
2023/08/12 02:06:44;;;;;;;;;;;18.20;99.90;;;;;;5057901;28;20308;-77
2023/08/12 02:09:10;;;;;;;;;;;18.20;99.90;;;;;;5058024;28;19920;-76
2023/08/12 02:11:36;;;;;;;;;;;18.10;99.90;;;;;;5057870;28;19927;-76
2023/08/12 02:14:01;;;;;;;;;;;18.10;99.90;;;;;;5074164;28;19969;-77
2023/08/12 02:16:28;;;;;;;;;;;18.10;99.90;;;;;;5040960;28;19927;-77
2023/08/12 02:18:53;;;;;;;;;;;18.00;99.90;;;;;;5074721;28;19920;-77
2023/08/12 02:21:19;;;;;;;;;;;18.00;99.90;;;;;;5074186;28;20361;-76
2023/08/12 02:23:44;;;;;;;;;;;18.00;99.90;;;;;;5075026;28;20285;-77
2023/08/12 02:26:10;;;;;;;;;;;17.90;99.90;;;;;;5074608;28;19921;-76
2023/08/12 02:28:36;;;;;;;;;;;17.90;99.90;;;;;;5073670;28;19916;-78
2023/08/12 02:31:01;;;;;;;;;;;17.90;99.90;;;;;;5074187;28;19920;-76
2023/08/12 02:33:27;;;;;;;;;;;17.90;99.90;;;;;;5057167;28;20372;-76
2023/08/12 02:35:54;;;;;;;;;;;17.90;99.90;;;;;;5074298;28;20293;-77
2023/08/12 02:38:19;;;;;;;;;;;17.90;99.90;;;;;;5073869;28;19920;-76
2023/08/12 02:40:47;;;;;;;;;;;17.90;99.90;;;;;;5074402;28;19931;-76
2023/08/12 02:43:13;;;;;;;;;;;17.90;99.90;;;;;;5074105;28;19924;-77
2023/08/12 02:45:38;;;;;;;;;;;17.90;99.90;;;;;;5073720;28;20392;-76
2023/08/12 02:48:04;;;;;;;;;;;17.80;99.90;;;;;;5073784;28;19916;-78
2023/08/12 02:50:30;;;;;;;;;;;17.80;99.90;;;;;;5073752;28;19920;-77
2023/08/12 02:52:55;;;;;;;;;;;17.90;99.90;;;;;;5073812;28;19931;-76
2023/08/12 02:55:21;;;;;;;;;;;17.90;99.90;;;;;;5073711;28;20011;-76
2023/08/12 02:57:46;;;;;;;;;;;17.90;99.90;;;;;;5074095;28;20277;-76
2023/08/12 03:00:12;;;;;;;;;;;17.90;99.90;;;;;;5056564;28;20011;-76
2023/08/12 03:02:38;;;;;;;;;;;17.90;99.90;;;;;;5073830;28;19920;-77
2023/08/12 03:05:03;;;;;;;;;;;17.90;99.90;;;;;;5073776;28;19915;-76
2023/08/12 03:07:29;;;;;;;;;;;17.90;99.90;;;;;;5074038;28;20377;-76
2023/08/12 03:09:58;;;;;;;;;;;17.90;99.90;;;;;;5091956;28;20523;-75
2023/08/12 03:12:23;;;;;;;;;;;17.90;99.90;;;;;;5073061;28;20045;-75
2023/08/12 03:14:49;;;;;;;;;;;17.80;99.90;;;;;;5057040;28;19939;-76
2023/08/12 03:17:14;;;;;;;;;;;17.90;99.90;;;;;;5073453;28;19927;-76
2023/08/12 03:19:40;;;;;;;;;;;17.80;99.90;;;;;;5073401;28;19920;-77
2023/08/12 03:22:05;;;;;;;;;;;17.80;99.90;;;;;;5072699;28;19988;-76
2023/08/12 03:24:32;;;;;;;;;;;17.70;99.90;;;;;;5091508;28;19920;-76
2023/08/12 03:26:57;;;;;;;;;;;17.70;99.90;;;;;;5056829;28;19920;-77
2023/08/12 03:29:23;;;;;;;;;;;17.60;99.90;;;;;;5073519;28;19931;-75
2023/08/12 03:31:48;;;;;;;;;;;17.60;99.90;;;;;;5073405;28;19965;-76
2023/08/12 03:34:15;;;;;;;;;;;17.60;99.90;;;;;;5073144;28;19916;-76
2023/08/12 03:36:41;;;;;;;;;;;17.60;99.90;;;;;;5073604;28;19948;-77
2023/08/12 03:39:06;;;;;;;;;;;17.60;99.90;;;;;;5056115;28;19969;-76
2023/08/12 03:41:32;;;;;;;;;;;17.60;99.90;;;;;;5056294;28;19920;-76
2023/08/12 03:43:57;;;;;;;;;;;17.70;99.90;;;;;;5073097;28;19969;-77
2023/08/12 03:46:23;;;;;;;;;;;17.70;99.90;;;;;;5073040;28;19926;-76
2023/08/12 03:48:48;;;;;;;;;;;17.80;99.90;;;;;;5076401;28;19919;-77
2023/08/12 03:51:14;;;;;;;;;;;17.80;99.90;;;;;;5075994;28;19922;-77
2023/08/12 03:53:40;;;;;;;;;;;17.90;99.90;;;;;;5064734;28;20357;-76
2023/08/12 03:56:05;;;;;;;;;;;17.90;99.90;;;;;;5072977;28;19997;-76
2023/08/12 03:58:31;;;;;;;;;;;18.00;99.90;;;;;;5073274;28;19916;-77
2023/08/12 04:00:56;;;;;;;;;;;18.00;99.90;;;;;;5073546;28;19923;-76
2023/08/12 04:03:22;;;;;;;;;;;18.00;99.90;;;;;;5056111;28;20435;-76
2023/08/12 04:05:52;;;;;;;;;;;18.10;99.90;;;;;;5056584;28;19920;-77
2023/08/12 04:08:21;;;;;;;;;;;18.10;99.90;;;;;;5072795;28;19963;-81
2023/08/12 04:10:47;;;;;;;;;;;18.10;99.90;;;;;;5073146;28;19916;-76
2023/08/12 04:13:13;;;;;;;;;;;18.20;99.90;;;;;;5072700;28;20265;-76
2023/08/12 04:15:39;;;;;;;;;;;18.20;99.90;;;;;;5072474;28;19927;-76
2023/08/12 04:18:04;;;;;;;;;;;18.20;99.90;;;;;;5072323;28;19927;-76
2023/08/12 04:20:30;;;;;;;;;;;18.20;99.90;;;;;;5072441;28;19924;-77
2023/08/12 04:22:55;;;;;;;;;;;18.30;99.90;;;;;;5072160;28;19920;-78
2023/08/12 04:25:21;;;;;;;;;;;18.30;99.90;;;;;;5055186;28;20663;-76
2023/08/12 04:27:48;;;;;;;;;;;18.40;99.90;;;;;;5055582;28;19916;-77
2023/08/12 04:30:13;;;;;;;;;;;18.40;99.90;;;;;;5071332;28;19920;-77
2023/08/12 04:32:39;;;;;;;;;;;18.40;99.90;;;;;;5055435;28;19920;-78
2023/08/12 04:35:05;;;;;;;;;;;18.40;99.90;;;;;;5071215;28;20436;-76
2023/08/12 04:37:32;;;;;;;;;;;18.50;99.90;;;;;;5071062;28;20083;-76
2023/08/12 04:39:57;;;;;;;;;;;18.50;99.90;;;;;;5071405;28;19926;-77
2023/08/12 04:42:23;;;;;;;;;;;18.60;99.90;;;;;;5054645;28;19920;-77
2023/08/12 04:44:48;;;;;;;;;;;18.60;99.90;;;;;;5072088;28;19976;-76
2023/08/12 04:47:14;;;;;;;;;;;18.60;99.90;;;;;;5071959;28;19916;-76
2023/08/12 04:49:40;;;;;;;;;;;18.60;99.90;;;;;;5071886;28;20301;-77
2023/08/12 04:52:06;;;;;;;;;;;18.60;99.90;;;;;;5073862;28;19928;-76
2023/08/12 04:54:32;;;;;;;;;;;18.70;99.90;;;;;;5075952;28;20002;-76
2023/08/12 04:56:59;;;;;;;;;;;18.70;99.90;;;;;;5059776;28;20356;-77
2023/08/12 04:59:24;;;;;;;;;;;18.70;99.90;;;;;;5076008;28;19931;-77
2023/08/12 05:01:50;;;;;;;;;;;18.70;99.90;;;;;;5057294;28;19921;-76
2023/08/12 05:04:16;;;;;;;;;;;18.70;99.90;;;;;;5047674;28;19916;-77
2023/08/12 05:06:42;;;;;;;;;;;18.70;99.90;;;;;;5076287;28;19920;-75
2023/08/12 05:09:08;;;;;;;;;;;18.70;99.90;;;;;;5075756;28;19926;-75
2023/08/12 05:11:33;;;;;;;;;;;18.80;99.90;;;;;;5059699;28;20324;-76
2023/08/12 05:13:59;;;;;;;;;;;18.80;99.90;;;;;;5076058;28;19920;-77
2023/08/12 05:16:25;;;;;;;;;;;18.80;99.90;;;;;;5059024;28;20436;-76
2023/08/12 05:18:51;;;;;;;;;;;18.80;99.90;;;;;;5076025;28;20014;-75
2023/08/12 05:21:18;;;;;;;;;;;18.90;99.90;;;;;;5076106;28;19916;-77
2023/08/12 05:23:43;;;;;;;;;;;18.90;99.90;;;;;;5075511;28;19916;-77
2023/08/12 05:26:09;;;;;;;;;;;19.00;99.90;;;;;;5075495;28;19959;-76
2023/08/12 05:28:34;;;;;;;;;;;19.10;99.90;;;;;;5093587;28;20011;-76
2023/08/12 05:31:00;;;;;;;;;;;19.20;99.90;;;;;;5075245;28;20356;-76
2023/08/12 05:33:26;;;;;;;;;;;19.40;99.90;;;;;;5058335;28;20430;-75
2023/08/12 05:35:51;;;;;;;;;;;19.50;99.90;;;;;;5058610;28;19927;-76
2023/08/12 05:38:17;;;;;;;;;;;19.60;99.90;;;;;;5075631;28;19968;-77
2023/08/12 05:40:44;;;;;;;;;;;19.80;99.90;;;;;;5075608;28;19966;-77
2023/08/12 05:43:09;;;;;;;;;;;20.00;99.90;;;;;;5075226;28;20006;-77
2023/08/12 05:45:35;;;;;;;;;;;20.10;99.90;;;;;;5074805;28;20322;-77
2023/08/12 05:48:00;;;;;;;;;;;20.20;99.90;;;;;;5075375;28;19924;-78
2023/08/12 05:50:26;;;;;;;;;;;20.30;99.90;;;;;;5074773;28;19920;-76
2023/08/12 05:52:51;;;;;;;;;;;20.30;99.90;;;;;;5071926;28;20407;-77
2023/08/12 05:55:17;;;;;;;;;;;20.40;99.90;;;;;;5072280;28;20270;-75
2023/08/12 05:57:42;;;;;;;;;;;20.40;99.90;;;;;;5071996;28;19920;-77
2023/08/12 06:00:08;;;;;;;;;;;20.40;99.90;;;;;;5071887;28;19920;-77
2023/08/12 06:02:34;;;;;;;;;;;20.40;99.90;;;;;;5070787;28;20373;-76
2023/08/12 06:04:59;;;;;;;;;;;20.40;99.90;;;;;;5071481;28;19924;-76
2023/08/12 06:07:25;;;;;;;;;;;20.40;99.90;;;;;;5071219;28;20051;-77
2023/08/12 06:09:50;;;;;;;;;;;20.50;99.90;;;;;;5071593;28;19942;-77
2023/08/12 06:12:16;;;;;;;;;;;20.60;99.90;;;;;;5054944;28;19962;-77
2023/08/12 06:14:42;;;;;;;;;;;20.70;99.90;;;;;;5071735;28;19920;-77
2023/08/12 06:17:08;;;;;;;;;;;20.80;99.90;;;;;;5072770;28;20366;-76
2023/08/12 06:19:39;;;;;;;;;;;20.90;99.90;;;;;;5070907;28;19995;-77
2023/08/12 06:22:04;;;;;;;;;;;20.90;99.90;;;;;;5071155;28;19932;-76
2023/08/12 06:24:30;;;;;;;;;;;20.90;99.90;;;;;;5071796;28;20007;-76
2023/08/12 06:26:55;;;;;;;;;;;20.90;99.90;;;;;;5071131;28;19924;-77
2023/08/12 06:29:21;;;;;;;;;;;20.90;99.90;;;;;;5071134;28;19924;-77
2023/08/12 06:31:47;;;;;;;;;;;20.90;99.90;;;;;;5070731;28;19920;-76
2023/08/12 06:34:12;;;;;;;;;;;20.90;99.90;;;;;;5071013;28;19924;-76
2023/08/12 06:36:39;;;;;;;;;;;20.90;99.90;;;;;;5054106;28;20285;-77
2023/08/12 06:39:05;;;;;;;;;;;20.90;99.90;;;;;;5071418;28;20324;-77
2023/08/12 06:41:30;;;;;;;;;;;20.90;99.90;;;;;;5070788;28;19931;-76
2023/08/12 06:43:56;;;;;;;;;;;20.90;99.90;;;;;;5054171;28;20418;-76
2023/08/12 06:46:21;;;;;;;;;;;20.90;99.90;;;;;;5069863;28;20341;-76
2023/08/12 06:48:47;;;;;;;;;;;20.90;99.90;;;;;;5071027;28;19977;-76
2023/08/12 06:51:12;;;;;;;;;;;20.90;99.90;;;;;;5054390;28;19924;-76
2023/08/12 06:53:39;;;;;;;;;;;20.90;99.90;;;;;;5073962;28;19927;-78
2023/08/12 06:56:06;;;;;;;;;;;20.90;99.90;;;;;;5074019;28;19916;-77
2023/08/12 06:58:32;;;;;;;;;;;20.90;99.90;;;;;;5056883;28;20377;-77
2023/08/12 07:00:58;;;;;;;;;;;21.00;99.90;;;;;;5074522;28;19926;-77
2023/08/12 07:03:25;;;;;;;;;;;20.90;99.90;;;;;;5073441;28;19965;-76
2023/08/12 07:05:52;;;;;;;;;;;20.80;99.90;;;;;;5074443;28;20006;-77
2023/08/12 07:08:17;;;;;;;;;;;20.70;99.90;;;;;;5074371;28;19920;-77
2023/08/12 07:10:43;;;;;;;;;;;20.60;99.90;;;;;;5073738;28;20062;-77
2023/08/12 07:13:08;;;;;;;;;;;20.60;99.90;;;;;;5073874;28;20288;-76
2023/08/12 07:15:34;;;;;;;;;;;20.50;99.90;;;;;;5072932;28;19962;-76
2023/08/12 07:18:00;;;;;;;;;;;20.50;99.90;;;;;;5073759;28;19923;-77
2023/08/12 07:20:25;;;;;;;;;;;20.50;99.90;;;;;;5073076;28;20455;-77
2023/08/12 07:22:52;;;;;;;;;;;20.50;99.90;;;;;;5073353;28;19916;-77
2023/08/12 07:25:17;;;;;;;;;;;20.50;99.90;;;;;;5073925;28;19923;-76
2023/08/12 07:27:43;;;;;;;;;;;20.50;99.90;;;;;;5073198;28;19920;-76
2023/08/12 07:30:11;;;;;;;;;;;20.50;99.90;;;;;;5091538;28;19916;-77
2023/08/12 07:32:37;;;;;;;;;;;20.60;99.90;;;;;;5072999;28;20391;-76
2023/08/12 07:35:05;;;;;;;;;;;20.70;99.90;;;;;;5057645;28;19931;-77
2023/08/12 07:37:31;;;;;;;;;;;20.70;99.90;;;;;;5073007;28;19969;-76
2023/08/12 07:39:56;;;;;;;;;;;20.80;99.90;;;;;;5073472;28;19920;-76
2023/08/12 07:42:22;;;;;;;;;;;20.90;99.90;;;;;;5073171;28;19927;-76
2023/08/12 07:44:48;;;;;;;;;;;20.90;99.90;;;;;;5073510;28;19923;-75
2023/08/12 07:47:15;;;;;;;;;;;21.00;99.90;;;;;;5073709;28;19927;-77
2023/08/12 07:49:41;;;;;;;;;;;21.10;99.90;;;;;;5056391;28;19924;-76
2023/08/12 07:52:06;;;;;;;;;;;21.20;99.90;;;;;;5073076;28;19919;-77
2023/08/12 07:54:32;;;;;;;;;;;21.20;99.90;;;;;;5072607;28;19916;-77
2023/08/12 07:56:57;;;;;;;;;;;21.20;99.90;;;;;;5073436;28;19916;-77
2023/08/12 07:59:23;;;;;;;;;;;21.10;99.90;;;;;;5072868;28;19920;-77
2023/08/12 08:01:49;;;;;;;;;;;21.10;99.90;;;;;;5090861;28;20006;-77
2023/08/12 08:04:14;;;;;;;;;;;21.10;99.90;;;;;;5055858;28;20046;-77
2023/08/12 08:06:40;;;;;;;;;;;21.10;99.90;;;;;;5072521;28;19920;-76
2023/08/12 08:09:06;;;;;;;;;;;21.00;99.90;;;;;;5072968;28;19946;-77
2023/08/12 08:11:32;;;;;;;;;;;21.00;99.90;;;;;;5072800;28;20297;-76
2023/08/12 08:13:58;;;;;;;;;;;21.00;99.90;;;;;;5072979;28;20006;-77
2023/08/12 08:16:24;;;;;;;;;;;21.00;99.90;;;;;;5056710;28;20003;-77
2023/08/12 08:18:49;;;;;;;;;;;20.90;99.90;;;;;;5072312;28;20355;-77
2023/08/12 08:21:15;;;;;;;;;;;20.90;99.90;;;;;;5072601;28;19923;-77
2023/08/12 08:23:41;;;;;;;;;;;20.90;99.90;;;;;;5072252;28;19970;-78
2023/08/12 08:26:07;;;;;;;;;;;20.90;99.90;;;;;;5073462;28;19969;-77
2023/08/12 08:28:32;;;;;;;;;;;21.00;99.90;;;;;;5076444;28;20353;-76
2023/08/12 08:30:58;;;;;;;;;;;20.90;99.90;;;;;;5059750;28;19916;-75
2023/08/12 08:33:25;;;;;;;;;;;20.90;99.90;;;;;;5076639;28;19991;-76
2023/08/12 08:35:50;;;;;;;;;;;20.90;99.90;;;;;;5059506;28;20415;-76
2023/08/12 08:38:16;;;;;;;;;;;21.00;99.90;;;;;;5076440;28;19920;-76
2023/08/12 08:40:42;;;;;;;;;;;21.00;99.90;;;;;;5076272;28;20370;-76
2023/08/12 08:43:08;;;;;;;;;;;21.00;99.90;;;;;;5076396;28;19916;-76
2023/08/12 08:45:33;;;;;;;;;;;21.10;99.90;;;;;;5059103;28;19924;-76
2023/08/12 08:48:00;;;;;;;;;;;21.10;99.90;;;;;;5060038;28;19916;-78
2023/08/12 08:50:26;;;;;;;;;;;21.10;99.90;;;;;;5076773;28;19916;-77
2023/08/12 08:52:52;;;;;;;;;;;21.10;99.90;;;;;;5075752;28;19924;-77
2023/08/12 08:55:18;;;;;;;;;;;21.10;99.90;;;;;;5059410;28;19981;-77
2023/08/12 08:57:44;;;;;;;;;;;21.00;99.90;;;;;;5075972;28;20340;-77
2023/08/12 09:00:10;;;;;;;;;;;21.00;99.90;;;;;;5059449;28;20408;-76
2023/08/12 09:02:37;;;;;;;;;;;20.90;99.90;;;;;;5075646;28;19920;-75
2023/08/12 09:05:03;;;;;;;;;;;20.90;99.90;;;;;;5075817;28;19927;-77
2023/08/12 09:07:29;;;;;;;;;;;20.90;99.90;;;;;;5076080;28;19951;-77
2023/08/12 09:09:57;;;;;;;;;;;20.90;99.90;;;;;;5075312;28;19976;-76
2023/08/12 09:12:23;;;;;;;;;;;20.80;99.90;;;;;;5059110;28;19924;-77
2023/08/12 09:14:48;;;;;;;;;;;20.80;99.90;;;;;;5075392;28;19922;-76
2023/08/12 09:17:14;;;;;;;;;;;20.70;99.90;;;;;;5059099;28;19920;-77
2023/08/12 09:19:41;;;;;;;;;;;20.70;99.90;;;;;;5058558;28;19973;-75
2023/08/12 09:22:09;;;;;;;;;;;20.60;99.90;;;;;;5075415;28;19926;-77
2023/08/12 09:24:36;;;;;;;;;;;20.60;99.90;;;;;;5076235;28;19916;-76
2023/08/12 09:27:01;;;;;;;;;;;20.50;99.90;;;;;;5075956;28;19923;-75
2023/08/12 09:29:33;;;;;;;;;;;20.50;99.90;;;;;;5075325;28;19920;-76
2023/08/12 09:32:06;;;;;;;;;;;20.50;99.90;;;;;;5058599;28;19939;-76
2023/08/12 09:34:31;;;;;;;;;;;20.50;99.90;;;;;;5058588;28;19916;-76
2023/08/12 09:36:57;;;;;;;;;;;20.50;99.90;;;;;;5074785;28;19920;-76
2023/08/12 09:39:22;;;;;;;;;;;20.50;99.90;;;;;;5075294;28;19987;-76
2023/08/12 09:41:49;;;;;;;;;;;20.50;99.90;;;;;;5075165;28;19920;-78
2023/08/12 09:44:15;;;;;;;;;;;20.60;99.90;;;;;;5075121;28;19969;-76
2023/08/12 09:46:40;;;;;;;;;;;20.60;99.90;;;;;;5078232;28;21013;-77
2023/08/12 09:49:06;;;;;;;;;;;20.60;99.90;;;;;;5078733;28;20385;-76
2023/08/12 09:51:35;;;;;;;;;;;20.60;99.90;;;;;;5095276;28;19923;-76
2023/08/12 09:54:02;;;;;;;;;;;20.70;99.90;;;;;;5080428;28;19920;-77
2023/08/12 09:56:30;;;;;;;;;;;20.70;99.90;;;;;;5075498;28;19923;-76
2023/08/12 09:58:55;;;;;;;;;;;20.70;99.90;;;;;;5074476;28;19920;-76
2023/08/12 10:01:24;;;;;;;;;;;20.70;99.90;;;;;;5076196;28;19920;-76
2023/08/12 10:03:53;;;;;;;;;;;20.60;99.90;;;;;;5058011;28;19965;-76
2023/08/12 10:06:22;;;;;;;;;;;20.60;99.90;;;;;;5058702;28;20357;-76
2023/08/12 10:08:49;;;;;;;;;;;20.60;99.90;;;;;;5074595;28;19968;-76
2023/08/12 10:11:15;;;;;;;;;;;20.60;99.90;;;;;;5058080;28;19927;-76
2023/08/12 10:13:40;;;;;;;;;;;20.70;99.90;;;;;;5074523;28;19994;-75
2023/08/12 10:16:06;;;;;;;;;;;20.70;99.90;;;;;;5074586;28;20400;-75
2023/08/12 10:18:33;;;;;;;;;;;20.70;99.90;;;;;;5074383;28;20695;-77
2023/08/12 10:20:59;;;;;;;;;;;20.70;99.90;;;;;;5074413;28;19919;-76
2023/08/12 10:23:25;;;;;;;;;;;20.70;99.90;;;;;;5074016;28;20006;-76
2023/08/12 10:25:54;;;;;;;;;;;20.60;99.90;;;;;;5074148;28;20004;-77
2023/08/12 10:28:20;;;;;;;;;;;20.60;99.90;;;;;;5057828;28;19920;-75
2023/08/12 10:30:45;;;;;;;;;;;20.60;99.90;;;;;;5073506;28;19923;-75
2023/08/12 10:33:13;;;;;;;;;;;20.60;99.90;;;;;;5074374;28;19916;-76
2023/08/12 10:35:42;;;;;;;;;;;20.60;99.90;;;;;;5074671;28;19924;-76
2023/08/12 10:38:08;;;;;;;;;;;20.70;99.90;;;;;;5057454;28;20006;-77
2023/08/12 10:40:34;;;;;;;;;;;20.70;99.90;;;;;;5073723;28;19924;-77
2023/08/12 10:42:59;;;;;;;;;;;20.70;99.90;;;;;;5056975;28;19991;-76
2023/08/12 10:45:40;;;;;;;;;;;20.80;99.90;;;;;;5074160;28;19935;-76
2023/08/12 10:48:12;;;;;;;;;;;20.80;99.90;;;;;;5071885;28;19963;-75
2023/08/12 10:50:43;;;;;;;;;;;20.90;99.90;;;;;;5093735;28;19916;-76
2023/08/12 10:53:31;;;;;;;;;;;20.90;99.90;;;;;;5086532;28;19920;-77
2023/08/12 10:55:59;;;;;;;;;;;21.00;99.90;;;;;;5073390;28;19920;-76
2023/08/12 10:58:28;;;;;;;;;;;20.90;99.90;;;;;;5074232;28;20285;-75
2023/08/12 11:00:55;;;;;;;;;;;20.80;99.90;;;;;;5073648;28;20618;-77
2023/08/12 11:03:21;;;;;;;;;;;20.80;99.90;;;;;;5057936;28;19923;-78
2023/08/12 11:05:46;;;;;;;;;;;20.70;99.90;;;;;;5091903;28;20281;-79
2023/08/12 11:08:13;;;;;;;;;;;20.60;99.90;;;;;;5075361;28;19916;-78
2023/08/12 11:10:38;;;;;;;;;;;20.60;99.90;;;;;;5075611;28;19916;-78
2023/08/12 11:13:04;;;;;;;;;;;20.60;99.90;;;;;;5073963;28;19943;-77
2023/08/12 11:15:33;;;;;;;;;;;20.60;99.90;;;;;;5074025;28;20381;-78
2023/08/12 11:17:59;;;;;;;;;;;20.60;99.90;;;;;;5073262;28;19916;-76
2023/08/12 11:20:25;;;;;;;;;;;20.70;99.90;;;;;;5074536;28;19977;-78
2023/08/12 11:22:50;;;;;;;;;;;20.80;99.90;;;;;;5074179;28;19927;-77
2023/08/12 11:25:16;;;;;;;;;;;20.80;99.90;;;;;;5075101;28;19978;-76
2023/08/12 11:28:00;;;;;;;;;;;20.90;99.90;;;;;;5074386;28;20273;-77
2023/08/12 11:30:26;;;;;;;;;;;20.90;99.90;;;;;;5073631;28;19920;-78
2023/08/12 11:32:53;;;;;;;;;;;20.90;99.90;;;;;;5091269;28;20306;-77
2023/08/12 11:35:19;;;;;;;;;;;21.00;99.90;;;;;;5074327;28;20261;-77
2023/08/12 11:37:46;;;;;;;;;;;21.20;99.90;;;;;;5056865;28;19916;-77
2023/08/12 11:40:14;;;;;;;;;;;21.30;99.90;;;;;;5056916;28;19924;-77
2023/08/12 11:42:41;;;;;;;;;;;21.40;99.90;;;;;;5073500;28;19916;-76
2023/08/12 11:45:07;;;;;;;;;;;21.50;99.90;;;;;;5070278;28;20264;-76
2023/08/12 11:47:34;;;;;;;;;;;21.50;99.90;;;;;;5074432;28;20306;-77
2023/08/12 11:50:09;;;;;;;;;;;21.50;99.90;;;;;;5073187;28;19916;-77
2023/08/12 11:52:38;;;;;;;;;;;21.50;99.90;;;;;;5073312;28;19927;-77
2023/08/12 11:55:07;;;;;;;;;;;21.50;99.90;;;;;;5072857;28;20254;-78
2023/08/12 11:57:36;;;;;;;;;;;21.40;99.90;;;;;;5072893;28;19924;-78
2023/08/12 12:00:13;;;;;;;;;;;21.20;99.90;;;;;;5068435;28;19924;-77
2023/08/12 12:02:50;;;;;;;;;;;21.10;99.90;;;;;;5053990;28;19920;-80
2023/08/12 12:05:16;;;;;;;;;;;20.90;99.90;;;;;;5072024;28;19916;-82
2023/08/12 12:07:42;;;;;;;;;;;20.40;99.90;;;;;;5054597;28;20310;-80
2023/08/12 12:10:07;;;;;;;;;;;20.00;99.90;;;;;;5054805;28;19966;-79
2023/08/12 12:12:35;;;;;;;;;;;19.70;99.90;;;;;;5054571;28;20007;-81
2023/08/12 12:15:00;;;;;;;;;;;19.30;99.90;;;;;;5054957;28;19920;-82
2023/08/12 12:17:26;;;;;;;;;;;19.10;99.90;;;;;;5072615;28;19917;-80
2023/08/12 12:19:52;;;;;;;;;;;19.00;99.90;;;;;;5054172;28;19974;-80
2023/08/12 12:22:18;;;;;;;;;;;18.90;99.90;;;;;;5041557;28;19916;-80
2023/08/12 12:24:47;;;;;;;;;;;18.70;99.90;;;;;;5074437;28;19919;-78
2023/08/12 12:27:13;;;;;;;;;;;18.60;99.90;;;;;;5073463;28;19999;-79
2023/08/12 12:29:38;;;;;;;;;;;18.60;99.90;;;;;;5056842;28;20491;-78
2023/08/12 12:32:04;;;;;;;;;;;18.70;99.90;;;;;;5056232;28;19935;-80
2023/08/12 12:34:30;;;;;;;;;;;18.80;99.90;;;;;;5073592;28;19916;-79
2023/08/12 12:36:55;;;;;;;;;;;18.90;99.90;;;;;;5041121;28;19978;-80
2023/08/12 12:39:24;;;;;;;;;;;19.10;99.90;;;;;;5074244;28;19927;-79
2023/08/12 12:41:49;;;;;;;;;;;19.30;99.90;;;;;;5056653;28;19920;-79
2023/08/12 12:44:15;;;;;;;;;;;19.60;99.90;;;;;;5056968;28;19985;-79
2023/08/12 12:46:41;;;;;;;;;;;19.80;99.90;;;;;;5076220;28;20352;-78
2023/08/12 12:49:07;;;;;;;;;;;20.20;99.90;;;;;;5092963;28;19928;-77
2023/08/12 12:51:32;;;;;;;;;;;20.40;99.90;;;;;;5092874;28;20404;-76
2023/08/12 12:53:58;;;;;;;;;;;20.40;99.90;;;;;;5061525;28;20281;-77
2023/08/12 12:56:24;;;;;;;;;;;20.40;99.90;;;;;;5072998;28;19923;-78
2023/08/12 12:58:50;;;;;;;;;;;20.30;99.90;;;;;;5072613;28;19953;-77
2023/08/12 13:01:16;;;;;;;;;;;20.40;99.90;;;;;;5086253;28;19920;-76
2023/08/12 13:03:41;;;;;;;;;;;20.40;99.90;;;;;;5093064;28;19923;-77
2023/08/12 13:06:07;;;;;;;;;;;20.40;99.90;;;;;;5092619;28;20002;-78
2023/08/12 13:08:32;;;;;;;;;;;20.50;99.90;;;;;;5076299;28;19930;-78
2023/08/12 13:10:58;;;;;;;;;;;20.80;99.90;;;;;;5076177;28;19926;-78
2023/08/12 13:13:24;;;;;;;;;;;21.30;99.90;;;;;;5096296;28;19919;-78
2023/08/12 13:15:50;;;;;;;;;;;21.70;99.90;;;;;;5096835;28;20388;-78
2023/08/12 13:18:15;;;;;;;;;;;22.20;99.90;;;;;;5096788;28;19959;-78
2023/08/12 13:20:41;;;;;;;;;;;22.70;99.90;;;;;;5057152;28;19928;-78
2023/08/12 13:23:06;;;;;;;;;;;23.20;99.90;;;;;;5065223;28;20296;-77
2023/08/12 13:25:33;;;;;;;;;;;23.10;99.90;;;;;;5058971;28;20438;-77
2023/08/12 13:28:01;;;;;;;;;;;23.10;99.90;;;;;;5058813;28;19927;-78
2023/08/12 13:30:27;;;;;;;;;;;22.90;99.90;;;;;;5075659;28;19923;-77
2023/08/12 13:32:53;;;;;;;;;;;22.70;99.90;;;;;;5074903;28;19931;-77
2023/08/12 13:35:20;;;;;;;;;;;22.80;99.90;;;;;;5075346;28;20016;-77
2023/08/12 13:37:47;;;;;;;;;;;23.10;99.90;;;;;;5075158;28;20353;-76
2023/08/12 13:40:14;;;;;;;;;;;23.40;99.90;;;;;;5075190;28;19998;-77
2023/08/12 13:42:43;;;;;;;;;;;23.50;99.90;;;;;;5093135;28;19923;-77
2023/08/12 13:45:11;;;;;;;;;;;23.50;99.90;;;;;;5071551;28;20405;-77
2023/08/12 13:47:37;;;;;;;;;;;23.60;99.90;;;;;;5075192;28;19919;-78
2023/08/12 13:50:03;;;;;;;;;;;23.70;99.90;;;;;;5074629;28;19923;-76
2023/08/12 13:52:29;;;;;;;;;;;23.90;99.90;;;;;;5075402;28;20464;-76
2023/08/12 13:54:54;;;;;;;;;;;24.20;99.90;;;;;;5074747;28;20393;-77
2023/08/12 13:57:20;;;;;;;;;;;24.40;99.90;;;;;;5074344;28;19993;-77
2023/08/12 13:59:51;;;;;;;;;;;24.50;99.90;;;;;;5072212;28;20345;-77
2023/08/12 14:02:17;;;;;;;;;;;24.60;99.90;;;;;;5054672;28;19920;-77
2023/08/12 14:04:43;;;;;;;;;;;24.70;99.90;;;;;;5038697;28;20015;-77
2023/08/12 14:07:08;;;;;;;;;;;24.80;99.90;;;;;;5038705;28;19989;-77
2023/08/12 14:09:34;;;;;;;;;;;24.90;99.90;;;;;;5038349;28;20397;-77
2023/08/12 14:11:59;;;;;;;;;;;25.10;99.90;;;;;;5054345;28;19927;-77